Irene V — J8PS4 — position and weather

sailwx.info

Track history (hours):
 
Tides and Currents Weather Stations Pressure Air Temp Water Temp Dewpoint Dewpoint Depression Visibility Wind Speed Wind Dir Waves Ship Positions

Irene V

Last reported at 2017-Feb-16 23:27 UTC. Time now 2017-Mar-22 22:21 UTC.
Position N 10°31' W 061°52'.
Warning: this ship's position is 33 days out of date.

Length 72 m; draft 5.7 m.

Type: Cargo ship. MMSI: 377924000.

Date/timePositionNaut miles runAvg speedWind from/ knotsBaromVisibWave heightAir tempDewpointWater temp
2017-Feb-16 23:27N 10°31' W 061°52'9 8.9
2017-Feb-16 22:25N 10°39' W 061°48'7 7.7
2017-Feb-16 21:30N 10°46' W 061°50'7 7.6
2017-Feb-16 20:33N 10°46' W 061°57'12 8.6
2017-Feb-16 19:09N 10°45' W 062°09'  
2017-Feb-11 08:21N 17°46' W 063°05'910.7
2017-Feb-11 07:31N 17°55' W 063°04'6 2.5
2017-Feb-11 05:12N 18°00' W 063°03'0 0.0
2017-Feb-11 04:31N 18°00' W 063°03'0 0.0
2017-Feb-11 02:32N 18°00' W 063°03'0 0.0
2017-Feb-11 01:31N 18°00' W 063°03'0 0.0
2017-Feb-11 00:07N 18°00' W 063°03'0 0.0
2017-Feb-10 23:22N 18°00' W 063°03'0 0.0
2017-Feb-10 16:23N 18°00' W 063°03'0 0.0
2017-Feb-10 14:18N 18°00' W 063°03'1 0.2
2017-Feb-10 10:33N 18°00' W 063°04'6 5.9
2017-Feb-10 09:32N 18°00' W 063°10'1 0.7
2017-Feb-10 08:32N 17°60' W 063°09'1 0.7
2017-Feb-10 07:25N 17°60' W 063°08'1 0.7
2017-Feb-10 06:30N 17°59' W 063°08'0 0.5
2017-Feb-10 05:28N 17°59' W 063°08'5 5.4
2017-Feb-10 04:31N 17°54' W 063°09'7 6.8
2017-Feb-10 03:33N 17°47' W 063°09'  
Track history (hours):
 
Tides and Currents Weather Stations Pressure Air Temp Water Temp Dewpoint Dewpoint Depression Visibility Wind Speed Wind Dir Waves Ship Positions

Irene V

Last reported at 2017-Feb-16 23:27 UTC. Time now 2017-Mar-22 22:21 UTC.
Position N 10°31' W 061°52'.
Warning: this ship's position is 33 days out of date.

Length 72 m; draft 5.7 m.

Type: Cargo ship. MMSI: 377924000.

Date/timePositionNaut miles runAvg speedWind from/ knotsBaromVisibWave heightAir tempDewpointWater temp
2017-Feb-16 23:27N 10°31' W 061°52'9 8.9
2017-Feb-16 22:25N 10°39' W 061°48'7 7.7
2017-Feb-16 21:30N 10°46' W 061°50'7 7.6
2017-Feb-16 20:33N 10°46' W 061°57'12 8.6
2017-Feb-16 19:09N 10°45' W 062°09'  
2017-Feb-11 08:21N 17°46' W 063°05'910.7
2017-Feb-11 07:31N 17°55' W 063°04'6 2.5
2017-Feb-11 05:12N 18°00' W 063°03'0 0.0
2017-Feb-11 04:31N 18°00' W 063°03'0 0.0
2017-Feb-11 02:32N 18°00' W 063°03'0 0.0
2017-Feb-11 01:31N 18°00' W 063°03'0 0.0
2017-Feb-11 00:07N 18°00' W 063°03'0 0.0
2017-Feb-10 23:22N 18°00' W 063°03'0 0.0
2017-Feb-10 16:23N 18°00' W 063°03'0 0.0
2017-Feb-10 14:18N 18°00' W 063°03'1 0.2
2017-Feb-10 10:33N 18°00' W 063°04'6 5.9
2017-Feb-10 09:32N 18°00' W 063°10'1 0.7
2017-Feb-10 08:32N 17°60' W 063°09'1 0.7
2017-Feb-10 07:25N 17°60' W 063°08'1 0.7
2017-Feb-10 06:30N 17°59' W 063°08'0 0.5
2017-Feb-10 05:28N 17°59' W 063°08'5 5.4
2017-Feb-10 04:31N 17°54' W 063°09'7 6.8
2017-Feb-10 03:33N 17°47' W 063°09'  

Dump ship's entire track history